Yellow Springs, Ohio
Current Conditions -  °F | °C
As of 5:26 PM on Monday 24 Nov 2014 (Local Time) from KSGH Reporting Station
Overcast Overcast  
Wind Chill: 35°   Ceiling: 3400
Heat Index: 43°   Visibility: 10mi
Dew Point: 34°   Wind: 18mph
Humidity: 70%   Direction: 220°SW
Pressure: 29.72"   Gusts: 29mph
Location:  39.81°N, 83.89°W
Report Text: KSGH 242226Z AUTO 22016G25KT 10SM OVC034 06/01 A2972 RMK AO2 PK WND 24032/2208 $
Loading
Personal Weather Stations






























Interactive Weather Map New forecast layout! Learn more

10-Day Weather Forecast

Advertisements
Track Severe Weather on mobile